Urb Monte Brisas 5, Puerto Rico
Current Conditions -  °F | °C
As of 8:53 AM on Thursday 27 Nov 2014 (Local Time) from TJNR Reporting Station
Few Clouds Few Clouds  
Wind Chill: 82°   Ceiling: Unl
Heat Index: 85°   Visibility: 10mi
Dew Point: 69°   Wind: 7mph
Humidity: 65%   Direction: 70°ENE
Pressure: 30.04"   Gusts: NA
Location:  18.3304°N, 65.6573°W
Report Text: TJNR 271253Z AUTO 07006KT 10SM FEW034 28/21 A3004 RMK AO2 SLP171 T02780206 $
Loading
Personal Weather Stations






























Interactive Weather Map New forecast layout! Learn more

10-Day Weather Forecast

Advertisements
Track Severe Weather on mobile